sensor_id;sensor_type;location;lat;lon;timestamp;temperature;humidity
4749;DHT22;2388;53.582;9.962;2024-03-07T00:02:08;5.20;99.90
4749;DHT22;2388;53.582;9.962;2024-03-07T00:04:33;5.20;99.90
4749;DHT22;2388;53.582;9.962;2024-03-07T00:07:02;5.30;99.90
4749;DHT22;2388;53.582;9.962;2024-03-07T00:09:31;5.30;99.90
4749;DHT22;2388;53.582;9.962;2024-03-07T00:11:57;5.30;99.90
4749;DHT22;2388;53.582;9.962;2024-03-07T00:14:24;5.30;99.90
4749;DHT22;2388;53.582;9.962;2024-03-07T00:16:56;5.40;99.90
4749;DHT22;2388;53.582;9.962;2024-03-07T00:19:22;5.30;99.90
4749;DHT22;2388;53.582;9.962;2024-03-07T00:21:51;5.30;99.90
4749;DHT22;2388;53.582;9.962;2024-03-07T00:24:17;5.30;99.90
4749;DHT22;2388;53.582;9.962;2024-03-07T00:26:42;5.20;99.90
4749;DHT22;2388;53.582;9.962;2024-03-07T00:29:08;5.20;99.90
4749;DHT22;2388;53.582;9.962;2024-03-07T00:31:33;5.20;99.90
4749;DHT22;2388;53.582;9.962;2024-03-07T00:33:59;5.30;99.90
4749;DHT22;2388;53.582;9.962;2024-03-07T00:36:25;5.30;99.90
4749;DHT22;2388;53.582;9.962;2024-03-07T00:38:51;5.30;99.90
4749;DHT22;2388;53.582;9.962;2024-03-07T00:41:17;5.40;99.90
4749;DHT22;2388;53.582;9.962;2024-03-07T00:43:43;5.40;99.90
4749;DHT22;2388;53.582;9.962;2024-03-07T00:46:08;5.40;99.90
4749;DHT22;2388;53.582;9.962;2024-03-07T00:48:36;5.40;99.90
4749;DHT22;2388;53.582;9.962;2024-03-07T00:51:02;5.50;99.90
4749;DHT22;2388;53.582;9.962;2024-03-07T00:53:27;5.50;99.90
4749;DHT22;2388;53.582;9.962;2024-03-07T00:55:53;5.50;99.90
4749;DHT22;2388;53.582;9.962;2024-03-07T00:58:18;5.50;99.90
4749;DHT22;2388;53.582;9.962;2024-03-07T01:00:44;5.50;99.90
4749;DHT22;2388;53.582;9.962;2024-03-07T01:03:09;5.60;99.90
4749;DHT22;2388;53.582;9.962;2024-03-07T01:05:39;5.60;99.90
4749;DHT22;2388;53.582;9.962;2024-03-07T01:08:05;5.60;99.90
4749;DHT22;2388;53.582;9.962;2024-03-07T01:10:31;5.70;99.90
4749;DHT22;2388;53.582;9.962;2024-03-07T01:12:57;5.70;99.90
4749;DHT22;2388;53.582;9.962;2024-03-07T01:15:26;5.70;99.90
4749;DHT22;2388;53.582;9.962;2024-03-07T01:17:52;5.70;99.90
4749;DHT22;2388;53.582;9.962;2024-03-07T01:20:18;5.70;99.90
4749;DHT22;2388;53.582;9.962;2024-03-07T01:22:44;5.80;99.90
4749;DHT22;2388;53.582;9.962;2024-03-07T01:25:09;5.70;99.90
4749;DHT22;2388;53.582;9.962;2024-03-07T01:27:35;5.70;99.90
4749;DHT22;2388;53.582;9.962;2024-03-07T01:30:01;5.70;99.90
4749;DHT22;2388;53.582;9.962;2024-03-07T01:32:27;5.70;99.90
4749;DHT22;2388;53.582;9.962;2024-03-07T01:34:53;5.70;99.90
4749;DHT22;2388;53.582;9.962;2024-03-07T01:37:19;5.70;99.90
4749;DHT22;2388;53.582;9.962;2024-03-07T01:39:44;5.80;99.90
4749;DHT22;2388;53.582;9.962;2024-03-07T01:42:10;5.80;99.90
4749;DHT22;2388;53.582;9.962;2024-03-07T01:44:35;5.80;99.90
4749;DHT22;2388;53.582;9.962;2024-03-07T01:47:01;5.70;99.90
4749;DHT22;2388;53.582;9.962;2024-03-07T01:49:30;5.70;99.90
4749;DHT22;2388;53.582;9.962;2024-03-07T01:51:56;5.70;99.90
4749;DHT22;2388;53.582;9.962;2024-03-07T01:54:22;5.80;99.90
4749;DHT22;2388;53.582;9.962;2024-03-07T01:56:48;5.80;99.90
4749;DHT22;2388;53.582;9.962;2024-03-07T01:59:15;5.80;99.90
4749;DHT22;2388;53.582;9.962;2024-03-07T02:01:41;5.80;99.90
4749;DHT22;2388;53.582;9.962;2024-03-07T02:04:07;5.80;99.90
4749;DHT22;2388;53.582;9.962;2024-03-07T02:06:33;5.70;99.90
4749;DHT22;2388;53.582;9.962;2024-03-07T02:08:59;5.80;99.90
4749;DHT22;2388;53.582;9.962;2024-03-07T02:11:26;5.80;99.90
4749;DHT22;2388;53.582;9.962;2024-03-07T02:13:52;5.80;99.90
4749;DHT22;2388;53.582;9.962;2024-03-07T02:16:17;5.70;99.90
4749;DHT22;2388;53.582;9.962;2024-03-07T02:18:44;5.70;99.90
4749;DHT22;2388;53.582;9.962;2024-03-07T02:21:10;5.70;99.90
4749;DHT22;2388;53.582;9.962;2024-03-07T02:23:37;5.70;99.90
4749;DHT22;2388;53.582;9.962;2024-03-07T02:26:03;5.70;99.90
4749;DHT22;2388;53.582;9.962;2024-03-07T02:28:28;5.80;99.90
4749;DHT22;2388;53.582;9.962;2024-03-07T02:30:54;5.70;99.90
4749;DHT22;2388;53.582;9.962;2024-03-07T02:33:19;5.80;99.90
4749;DHT22;2388;53.582;9.962;2024-03-07T02:35:44;5.80;99.90
4749;DHT22;2388;53.582;9.962;2024-03-07T02:38:10;5.70;99.90
4749;DHT22;2388;53.582;9.962;2024-03-07T02:40:36;5.70;99.90
4749;DHT22;2388;53.582;9.962;2024-03-07T02:43:01;5.60;99.90
4749;DHT22;2388;53.582;9.962;2024-03-07T02:45:30;5.70;99.90
4749;DHT22;2388;53.582;9.962;2024-03-07T02:47:56;5.70;99.90
4749;DHT22;2388;53.582;9.962;2024-03-07T02:50:22;5.70;99.90
4749;DHT22;2388;53.582;9.962;2024-03-07T02:52:48;5.70;99.90
4749;DHT22;2388;53.582;9.962;2024-03-07T02:55:15;5.70;99.90
4749;DHT22;2388;53.582;9.962;2024-03-07T02:57:41;5.60;99.90
4749;DHT22;2388;53.582;9.962;2024-03-07T03:00:06;5.70;99.90
4749;DHT22;2388;53.582;9.962;2024-03-07T03:02:47;5.70;99.90
4749;DHT22;2388;53.582;9.962;2024-03-07T03:05:14;5.70;99.90
4749;DHT22;2388;53.582;9.962;2024-03-07T03:07:40;5.60;99.90
4749;DHT22;2388;53.582;9.962;2024-03-07T03:10:06;5.60;99.90
4749;DHT22;2388;53.582;9.962;2024-03-07T03:12:36;5.60;99.90
4749;DHT22;2388;53.582;9.962;2024-03-07T03:15:02;5.70;99.90
4749;DHT22;2388;53.582;9.962;2024-03-07T03:17:30;5.70;99.90
4749;DHT22;2388;53.582;9.962;2024-03-07T03:19:56;5.70;99.90
4749;DHT22;2388;53.582;9.962;2024-03-07T03:22:22;5.70;99.90
4749;DHT22;2388;53.582;9.962;2024-03-07T03:24:47;5.70;99.90
4749;DHT22;2388;53.582;9.962;2024-03-07T03:27:13;5.50;99.90
4749;DHT22;2388;53.582;9.962;2024-03-07T03:29:39;5.60;99.90
4749;DHT22;2388;53.582;9.962;2024-03-07T03:32:06;5.60;99.90
4749;DHT22;2388;53.582;9.962;2024-03-07T03:34:32;5.70;99.90
4749;DHT22;2388;53.582;9.962;2024-03-07T03:36:59;5.60;99.90
4749;DHT22;2388;53.582;9.962;2024-03-07T03:39:24;5.60;99.90
4749;DHT22;2388;53.582;9.962;2024-03-07T03:41:52;5.50;99.90
4749;DHT22;2388;53.582;9.962;2024-03-07T03:44:17;5.60;99.90
4749;DHT22;2388;53.582;9.962;2024-03-07T03:46:43;5.60;99.90
4749;DHT22;2388;53.582;9.962;2024-03-07T03:49:09;5.50;99.90
4749;DHT22;2388;53.582;9.962;2024-03-07T03:51:35;5.50;99.90
4749;DHT22;2388;53.582;9.962;2024-03-07T03:54:01;5.30;99.90
4749;DHT22;2388;53.582;9.962;2024-03-07T03:56:27;5.30;99.90
4749;DHT22;2388;53.582;9.962;2024-03-07T03:58:53;5.30;99.90
4749;DHT22;2388;53.582;9.962;2024-03-07T04:01:18;5.30;99.90
4749;DHT22;2388;53.582;9.962;2024-03-07T04:03:44;5.30;99.90
4749;DHT22;2388;53.582;9.962;2024-03-07T04:06:12;5.30;99.90
4749;DHT22;2388;53.582;9.962;2024-03-07T04:08:37;5.30;99.90
4749;DHT22;2388;53.582;9.962;2024-03-07T04:11:06;5.30;99.90
4749;DHT22;2388;53.582;9.962;2024-03-07T04:13:35;5.20;99.90
4749;DHT22;2388;53.582;9.962;2024-03-07T04:16:00;5.20;99.90
4749;DHT22;2388;53.582;9.962;2024-03-07T04:18:26;5.30;99.90
4749;DHT22;2388;53.582;9.962;2024-03-07T04:20:52;5.30;99.90
4749;DHT22;2388;53.582;9.962;2024-03-07T04:23:17;5.30;99.90
4749;DHT22;2388;53.582;9.962;2024-03-07T04:25:43;5.30;99.90
4749;DHT22;2388;53.582;9.962;2024-03-07T04:28:09;5.20;99.90
4749;DHT22;2388;53.582;9.962;2024-03-07T04:30:35;5.10;99.90
4749;DHT22;2388;53.582;9.962;2024-03-07T04:33:01;5.10;99.90
4749;DHT22;2388;53.582;9.962;2024-03-07T04:35:26;5.20;99.90
4749;DHT22;2388;53.582;9.962;2024-03-07T04:37:51;5.10;99.90
4749;DHT22;2388;53.582;9.962;2024-03-07T04:40:18;5.10;99.90
4749;DHT22;2388;53.582;9.962;2024-03-07T04:42:45;5.10;99.90
4749;DHT22;2388;53.582;9.962;2024-03-07T04:45:11;5.00;99.90
4749;DHT22;2388;53.582;9.962;2024-03-07T04:47:39;5.00;99.90
4749;DHT22;2388;53.582;9.962;2024-03-07T04:50:05;5.10;99.90
4749;DHT22;2388;53.582;9.962;2024-03-07T04:52:31;5.00;99.90
4749;DHT22;2388;53.582;9.962;2024-03-07T04:54:56;5.00;99.90
4749;DHT22;2388;53.582;9.962;2024-03-07T04:57:22;4.90;99.90
4749;DHT22;2388;53.582;9.962;2024-03-07T04:59:47;5.00;99.90
4749;DHT22;2388;53.582;9.962;2024-03-07T05:02:13;4.80;99.90
4749;DHT22;2388;53.582;9.962;2024-03-07T05:04:39;4.80;99.90
4749;DHT22;2388;53.582;9.962;2024-03-07T05:07:04;4.80;99.90
4749;DHT22;2388;53.582;9.962;2024-03-07T05:09:30;4.90;99.90
4749;DHT22;2388;53.582;9.962;2024-03-07T05:11:58;4.80;99.90
4749;DHT22;2388;53.582;9.962;2024-03-07T05:14:24;4.80;99.90
4749;DHT22;2388;53.582;9.962;2024-03-07T05:16:52;4.80;99.90
4749;DHT22;2388;53.582;9.962;2024-03-07T05:19:31;4.70;99.90
4749;DHT22;2388;53.582;9.962;2024-03-07T05:21:57;4.60;99.90
4749;DHT22;2388;53.582;9.962;2024-03-07T05:24:23;4.70;99.90
4749;DHT22;2388;53.582;9.962;2024-03-07T05:26:48;4.60;99.90
4749;DHT22;2388;53.582;9.962;2024-03-07T05:29:14;4.50;99.90
4749;DHT22;2388;53.582;9.962;2024-03-07T05:31:40;4.40;99.90
4749;DHT22;2388;53.582;9.962;2024-03-07T05:34:15;4.40;99.90
4749;DHT22;2388;53.582;9.962;2024-03-07T05:36:44;4.40;99.90
4749;DHT22;2388;53.582;9.962;2024-03-07T05:39:15;4.50;99.90
4749;DHT22;2388;53.582;9.962;2024-03-07T05:41:42;4.40;99.90
4749;DHT22;2388;53.582;9.962;2024-03-07T05:44:08;4.40;99.90
4749;DHT22;2388;53.582;9.962;2024-03-07T05:46:42;4.40;99.90
4749;DHT22;2388;53.582;9.962;2024-03-07T05:49:15;4.20;99.90
4749;DHT22;2388;53.582;9.962;2024-03-07T05:51:42;4.20;99.90
4749;DHT22;2388;53.582;9.962;2024-03-07T05:54:10;4.20;99.90
4749;DHT22;2388;53.582;9.962;2024-03-07T05:56:38;4.20;99.90
4749;DHT22;2388;53.582;9.962;2024-03-07T05:59:04;4.30;99.90
4749;DHT22;2388;53.582;9.962;2024-03-07T06:01:33;4.30;99.90
4749;DHT22;2388;53.582;9.962;2024-03-07T06:04:04;4.10;99.90
4749;DHT22;2388;53.582;9.962;2024-03-07T06:06:34;4.20;99.90
4749;DHT22;2388;53.582;9.962;2024-03-07T06:09:01;4.20;99.90
4749;DHT22;2388;53.582;9.962;2024-03-07T06:11:28;4.20;99.90
4749;DHT22;2388;53.582;9.962;2024-03-07T06:13:54;4.20;99.90
4749;DHT22;2388;53.582;9.962;2024-03-07T06:16:19;4.20;99.90
4749;DHT22;2388;53.582;9.962;2024-03-07T06:18:45;4.20;99.90
4749;DHT22;2388;53.582;9.962;2024-03-07T06:21:12;4.20;99.90
4749;DHT22;2388;53.582;9.962;2024-03-07T06:23:38;4.20;99.90
4749;DHT22;2388;53.582;9.962;2024-03-07T06:26:04;4.10;99.90
4749;DHT22;2388;53.582;9.962;2024-03-07T06:28:38;4.20;99.90
4749;DHT22;2388;53.582;9.962;2024-03-07T06:31:04;4.30;99.90
4749;DHT22;2388;53.582;9.962;2024-03-07T06:33:35;4.20;99.90
4749;DHT22;2388;53.582;9.962;2024-03-07T06:36:02;4.30;99.90
4749;DHT22;2388;53.582;9.962;2024-03-07T06:38:28;4.30;99.90
4749;DHT22;2388;53.582;9.962;2024-03-07T06:40:53;4.30;99.90
4749;DHT22;2388;53.582;9.962;2024-03-07T06:43:19;4.30;99.90
4749;DHT22;2388;53.582;9.962;2024-03-07T06:45:44;4.30;99.90
4749;DHT22;2388;53.582;9.962;2024-03-07T06:48:11;4.20;99.90
4749;DHT22;2388;53.582;9.962;2024-03-07T06:50:39;4.20;99.90
4749;DHT22;2388;53.582;9.962;2024-03-07T06:53:06;4.30;99.90
4749;DHT22;2388;53.582;9.962;2024-03-07T06:55:34;4.20;99.90
4749;DHT22;2388;53.582;9.962;2024-03-07T06:58:00;4.20;99.90
4749;DHT22;2388;53.582;9.962;2024-03-07T07:00:26;4.20;99.90
4749;DHT22;2388;53.582;9.962;2024-03-07T07:02:52;4.20;99.90
4749;DHT22;2388;53.582;9.962;2024-03-07T07:05:20;4.20;99.90
4749;DHT22;2388;53.582;9.962;2024-03-07T07:07:46;4.10;99.90
4749;DHT22;2388;53.582;9.962;2024-03-07T07:10:14;4.20;99.90
4749;DHT22;2388;53.582;9.962;2024-03-07T07:12:44;4.20;99.90
4749;DHT22;2388;53.582;9.962;2024-03-07T07:15:10;4.10;99.90
4749;DHT22;2388;53.582;9.962;2024-03-07T07:17:36;4.10;99.90
4749;DHT22;2388;53.582;9.962;2024-03-07T07:20:02;4.00;99.90
4749;DHT22;2388;53.582;9.962;2024-03-07T07:22:35;3.90;99.90
4749;DHT22;2388;53.582;9.962;2024-03-07T07:25:00;3.90;99.90
4749;DHT22;2388;53.582;9.962;2024-03-07T07:27:26;3.90;99.90
4749;DHT22;2388;53.582;9.962;2024-03-07T07:29:51;4.00;99.90
4749;DHT22;2388;53.582;9.962;2024-03-07T07:32:17;4.00;99.90
4749;DHT22;2388;53.582;9.962;2024-03-07T07:34:42;4.00;99.90
4749;DHT22;2388;53.582;9.962;2024-03-07T07:37:08;4.10;99.90
4749;DHT22;2388;53.582;9.962;2024-03-07T07:39:34;4.10;99.90
4749;DHT22;2388;53.582;9.962;2024-03-07T07:42:00;4.20;99.90
4749;DHT22;2388;53.582;9.962;2024-03-07T07:44:26;4.30;99.90
4749;DHT22;2388;53.582;9.962;2024-03-07T07:46:52;4.20;99.90
4749;DHT22;2388;53.582;9.962;2024-03-07T07:49:17;4.30;99.90
4749;DHT22;2388;53.582;9.962;2024-03-07T07:51:43;4.30;99.90
4749;DHT22;2388;53.582;9.962;2024-03-07T07:54:08;4.20;99.90
4749;DHT22;2388;53.582;9.962;2024-03-07T07:56:35;4.20;99.90
4749;DHT22;2388;53.582;9.962;2024-03-07T07:59:01;4.30;99.90
4749;DHT22;2388;53.582;9.962;2024-03-07T08:01:26;4.10;99.90
4749;DHT22;2388;53.582;9.962;2024-03-07T08:03:52;4.20;99.90
4749;DHT22;2388;53.582;9.962;2024-03-07T08:06:18;4.20;99.90
4749;DHT22;2388;53.582;9.962;2024-03-07T08:08:43;4.20;99.90
4749;DHT22;2388;53.582;9.962;2024-03-07T08:11:09;4.20;99.90
4749;DHT22;2388;53.582;9.962;2024-03-07T08:13:36;4.30;99.90
4749;DHT22;2388;53.582;9.962;2024-03-07T08:16:02;4.20;99.90
4749;DHT22;2388;53.582;9.962;2024-03-07T08:18:28;4.20;99.90
4749;DHT22;2388;53.582;9.962;2024-03-07T08:20:54;4.20;99.90
4749;DHT22;2388;53.582;9.962;2024-03-07T08:23:20;4.30;99.90
4749;DHT22;2388;53.582;9.962;2024-03-07T08:25:47;4.40;99.90
4749;DHT22;2388;53.582;9.962;2024-03-07T08:28:13;4.40;99.90
4749;DHT22;2388;53.582;9.962;2024-03-07T08:30:39;4.30;99.90
4749;DHT22;2388;53.582;9.962;2024-03-07T08:33:04;4.30;99.90
4749;DHT22;2388;53.582;9.962;2024-03-07T08:35:30;4.30;99.90
4749;DHT22;2388;53.582;9.962;2024-03-07T08:37:56;4.30;99.90
4749;DHT22;2388;53.582;9.962;2024-03-07T08:40:27;4.30;99.90
4749;DHT22;2388;53.582;9.962;2024-03-07T08:42:56;4.30;99.90
4749;DHT22;2388;53.582;9.962;2024-03-07T08:45:22;4.30;99.90
4749;DHT22;2388;53.582;9.962;2024-03-07T08:47:52;4.40;99.90
4749;DHT22;2388;53.582;9.962;2024-03-07T08:50:19;4.40;99.90
4749;DHT22;2388;53.582;9.962;2024-03-07T08:52:46;4.40;99.90
4749;DHT22;2388;53.582;9.962;2024-03-07T08:55:17;4.40;99.90
4749;DHT22;2388;53.582;9.962;2024-03-07T08:57:44;4.40;99.90
4749;DHT22;2388;53.582;9.962;2024-03-07T09:00:12;4.50;99.90
4749;DHT22;2388;53.582;9.962;2024-03-07T09:02:48;4.60;99.90
4749;DHT22;2388;53.582;9.962;2024-03-07T09:05:17;4.70;99.90
4749;DHT22;2388;53.582;9.962;2024-03-07T09:07:43;4.70;99.90
4749;DHT22;2388;53.582;9.962;2024-03-07T09:10:08;4.70;99.90
4749;DHT22;2388;53.582;9.962;2024-03-07T09:12:36;4.70;99.90
4749;DHT22;2388;53.582;9.962;2024-03-07T09:15:03;4.60;99.90
4749;DHT22;2388;53.582;9.962;2024-03-07T09:17:28;4.60;99.90
4749;DHT22;2388;53.582;9.962;2024-03-07T09:19:54;4.50;99.90
4749;DHT22;2388;53.582;9.962;2024-03-07T09:22:19;4.40;99.90
4749;DHT22;2388;53.582;9.962;2024-03-07T09:24:45;4.40;99.90
4749;DHT22;2388;53.582;9.962;2024-03-07T09:27:10;4.40;99.90
4749;DHT22;2388;53.582;9.962;2024-03-07T09:29:36;4.50;99.90
4749;DHT22;2388;53.582;9.962;2024-03-07T09:32:02;4.60;99.90
4749;DHT22;2388;53.582;9.962;2024-03-07T09:34:27;4.70;99.90
4749;DHT22;2388;53.582;9.962;2024-03-07T09:36:56;4.80;99.90
4749;DHT22;2388;53.582;9.962;2024-03-07T09:39:21;4.80;99.90
4749;DHT22;2388;53.582;9.962;2024-03-07T09:41:47;4.80;99.90
4749;DHT22;2388;53.582;9.962;2024-03-07T09:44:15;4.80;99.90
4749;DHT22;2388;53.582;9.962;2024-03-07T09:46:50;4.80;99.90
4749;DHT22;2388;53.582;9.962;2024-03-07T09:49:17;4.80;99.90
4749;DHT22;2388;53.582;9.962;2024-03-07T09:51:44;4.60;99.90
4749;DHT22;2388;53.582;9.962;2024-03-07T09:54:10;4.60;99.90
4749;DHT22;2388;53.582;9.962;2024-03-07T09:56:37;4.60;99.90
4749;DHT22;2388;53.582;9.962;2024-03-07T09:59:04;4.60;99.90
4749;DHT22;2388;53.582;9.962;2024-03-07T10:01:34;4.60;99.90
4749;DHT22;2388;53.582;9.962;2024-03-07T10:04:00;4.70;99.90
4749;DHT22;2388;53.582;9.962;2024-03-07T10:06:43;4.80;99.90
4749;DHT22;2388;53.582;9.962;2024-03-07T10:09:11;4.80;99.90
4749;DHT22;2388;53.582;9.962;2024-03-07T10:11:40;4.70;99.90
4749;DHT22;2388;53.582;9.962;2024-03-07T10:14:07;4.70;99.90
4749;DHT22;2388;53.582;9.962;2024-03-07T10:16:32;4.70;99.90
4749;DHT22;2388;53.582;9.962;2024-03-07T10:18:58;4.60;99.90
4749;DHT22;2388;53.582;9.962;2024-03-07T10:21:26;4.60;99.90
4749;DHT22;2388;53.582;9.962;2024-03-07T10:24:04;4.60;99.90
4749;DHT22;2388;53.582;9.962;2024-03-07T10:26:35;4.70;99.90
4749;DHT22;2388;53.582;9.962;2024-03-07T10:29:01;4.60;99.90
4749;DHT22;2388;53.582;9.962;2024-03-07T10:31:31;4.70;99.90
4749;DHT22;2388;53.582;9.962;2024-03-07T10:34:01;4.80;99.90
4749;DHT22;2388;53.582;9.962;2024-03-07T10:36:28;4.90;99.90
4749;DHT22;2388;53.582;9.962;2024-03-07T10:38:56;5.00;99.90
4749;DHT22;2388;53.582;9.962;2024-03-07T10:41:28;5.00;99.90
4749;DHT22;2388;53.582;9.962;2024-03-07T10:43:57;5.00;99.90
4749;DHT22;2388;53.582;9.962;2024-03-07T10:46:25;5.10;99.90
4749;DHT22;2388;53.582;9.962;2024-03-07T10:48:54;5.10;99.90
4749;DHT22;2388;53.582;9.962;2024-03-07T10:54:10;5.20;99.90
4749;DHT22;2388;53.582;9.962;2024-03-07T10:59:20;5.30;99.90
4749;DHT22;2388;53.582;9.962;2024-03-07T11:01:57;5.40;99.90
4749;DHT22;2388;53.582;9.962;2024-03-07T11:04:25;5.50;99.90
4749;DHT22;2388;53.582;9.962;2024-03-07T11:06:50;5.50;99.90
4749;DHT22;2388;53.582;9.962;2024-03-07T11:09:16;5.50;99.90
4749;DHT22;2388;53.582;9.962;2024-03-07T11:11:48;5.50;99.90
4749;DHT22;2388;53.582;9.962;2024-03-07T11:14:14;5.50;99.90
4749;DHT22;2388;53.582;9.962;2024-03-07T11:16:42;5.50;99.90
4749;DHT22;2388;53.582;9.962;2024-03-07T11:19:27;5.50;99.90
4749;DHT22;2388;53.582;9.962;2024-03-07T11:21:54;5.60;99.90
4749;DHT22;2388;53.582;9.962;2024-03-07T11:26:52;5.70;99.90
4749;DHT22;2388;53.582;9.962;2024-03-07T11:29:47;5.70;99.90
4749;DHT22;2388;53.582;9.962;2024-03-07T11:32:13;5.80;99.90
4749;DHT22;2388;53.582;9.962;2024-03-07T11:34:41;5.80;99.90
4749;DHT22;2388;53.582;9.962;2024-03-07T11:37:07;5.90;99.90
4749;DHT22;2388;53.582;9.962;2024-03-07T11:39:49;5.90;99.90
4749;DHT22;2388;53.582;9.962;2024-03-07T11:42:27;5.90;99.90
4749;DHT22;2388;53.582;9.962;2024-03-07T11:44:54;6.00;99.90
4749;DHT22;2388;53.582;9.962;2024-03-07T11:47:24;6.00;99.90
4749;DHT22;2388;53.582;9.962;2024-03-07T11:49:51;6.10;99.90
4749;DHT22;2388;53.582;9.962;2024-03-07T11:52:18;6.10;99.90
4749;DHT22;2388;53.582;9.962;2024-03-07T11:54:44;6.10;99.90
4749;DHT22;2388;53.582;9.962;2024-03-07T11:59:41;6.10;99.90
4749;DHT22;2388;53.582;9.962;2024-03-07T12:02:13;6.10;99.90
4749;DHT22;2388;53.582;9.962;2024-03-07T12:04:43;6.20;99.90
4749;DHT22;2388;53.582;9.962;2024-03-07T12:07:09;6.20;99.90
4749;DHT22;2388;53.582;9.962;2024-03-07T12:09:38;6.20;99.90
4749;DHT22;2388;53.582;9.962;2024-03-07T12:12:05;6.30;99.90
4749;DHT22;2388;53.582;9.962;2024-03-07T12:14:31;6.20;99.90
4749;DHT22;2388;53.582;9.962;2024-03-07T12:16:57;6.30;99.90
4749;DHT22;2388;53.582;9.962;2024-03-07T12:19:25;6.30;99.90
4749;DHT22;2388;53.582;9.962;2024-03-07T12:21:56;6.20;99.90
4749;DHT22;2388;53.582;9.962;2024-03-07T12:24:22;6.20;99.90
4749;DHT22;2388;53.582;9.962;2024-03-07T12:26:47;6.30;99.90
4749;DHT22;2388;53.582;9.962;2024-03-07T12:29:13;6.30;99.90
4749;DHT22;2388;53.582;9.962;2024-03-07T12:31:39;6.30;99.90
4749;DHT22;2388;53.582;9.962;2024-03-07T12:34:05;6.40;99.90
4749;DHT22;2388;53.582;9.962;2024-03-07T12:36:32;6.40;99.90
4749;DHT22;2388;53.582;9.962;2024-03-07T12:39:24;6.50;99.90
4749;DHT22;2388;53.582;9.962;2024-03-07T12:41:52;6.50;99.90
4749;DHT22;2388;53.582;9.962;2024-03-07T12:44:20;6.50;99.90
4749;DHT22;2388;53.582;9.962;2024-03-07T12:46:56;6.60;99.90
4749;DHT22;2388;53.582;9.962;2024-03-07T12:49:22;6.60;99.90
4749;DHT22;2388;53.582;9.962;2024-03-07T12:51:55;6.50;99.90
4749;DHT22;2388;53.582;9.962;2024-03-07T12:54:22;6.50;99.90
4749;DHT22;2388;53.582;9.962;2024-03-07T12:56:48;6.50;99.90
4749;DHT22;2388;53.582;9.962;2024-03-07T12:59:16;6.50;99.90
4749;DHT22;2388;53.582;9.962;2024-03-07T13:01:42;6.50;99.90
4749;DHT22;2388;53.582;9.962;2024-03-07T13:04:10;6.50;99.90
4749;DHT22;2388;53.582;9.962;2024-03-07T13:06:36;6.60;99.90
4749;DHT22;2388;53.582;9.962;2024-03-07T13:09:02;6.60;99.90
4749;DHT22;2388;53.582;9.962;2024-03-07T13:11:39;6.70;99.90
4749;DHT22;2388;53.582;9.962;2024-03-07T13:14:12;6.80;99.90
4749;DHT22;2388;53.582;9.962;2024-03-07T13:16:37;6.80;99.90
4749;DHT22;2388;53.582;9.962;2024-03-07T13:19:03;6.90;99.90
4749;DHT22;2388;53.582;9.962;2024-03-07T13:21:30;6.90;99.90
4749;DHT22;2388;53.582;9.962;2024-03-07T13:23:57;6.90;99.90
4749;DHT22;2388;53.582;9.962;2024-03-07T13:26:23;7.00;99.90
4749;DHT22;2388;53.582;9.962;2024-03-07T13:28:51;7.00;99.90
4749;DHT22;2388;53.582;9.962;2024-03-07T13:31:18;6.90;99.90
4749;DHT22;2388;53.582;9.962;2024-03-07T13:33:44;6.90;99.90
4749;DHT22;2388;53.582;9.962;2024-03-07T13:36:10;7.00;99.90
4749;DHT22;2388;53.582;9.962;2024-03-07T13:38:37;7.00;99.90
4749;DHT22;2388;53.582;9.962;2024-03-07T13:41:03;7.00;99.90
4749;DHT22;2388;53.582;9.962;2024-03-07T13:43:32;7.00;99.90
4749;DHT22;2388;53.582;9.962;2024-03-07T13:46:00;7.00;99.90
4749;DHT22;2388;53.582;9.962;2024-03-07T13:48:26;7.10;99.90
4749;DHT22;2388;53.582;9.962;2024-03-07T13:50:51;7.20;99.90
4749;DHT22;2388;53.582;9.962;2024-03-07T13:53:19;7.20;99.90
4749;DHT22;2388;53.582;9.962;2024-03-07T13:58:38;7.20;99.90
4749;DHT22;2388;53.582;9.962;2024-03-07T14:01:31;7.20;99.90
4749;DHT22;2388;53.582;9.962;2024-03-07T14:15:45;7.80;99.90
4749;DHT22;2388;53.582;9.962;2024-03-07T14:27:26;7.80;99.90
4749;DHT22;2388;53.582;9.962;2024-03-07T14:32:39;8.20;99.90
4749;DHT22;2388;53.582;9.962;2024-03-07T14:35:24;8.20;99.90
4749;DHT22;2388;53.582;9.962;2024-03-07T14:40:21;8.20;99.90
4749;DHT22;2388;53.582;9.962;2024-03-07T14:42:48;8.20;99.90
4749;DHT22;2388;53.582;9.962;2024-03-07T14:45:30;8.20;1.00
4749;DHT22;2388;53.582;9.962;2024-03-07T14:47:57;8.30;52.90
4749;DHT22;2388;53.582;9.962;2024-03-07T14:50:24;8.40;99.90
4749;DHT22;2388;53.582;9.962;2024-03-07T14:52:52;8.40;1.00
4749;DHT22;2388;53.582;9.962;2024-03-07T14:55:18;8.40;99.90
4749;DHT22;2388;53.582;9.962;2024-03-07T14:57:44;8.40;99.90
4749;DHT22;2388;53.582;9.962;2024-03-07T15:00:11;8.40;99.90
4749;DHT22;2388;53.582;9.962;2024-03-07T15:02:52;8.40;1.00
4749;DHT22;2388;53.582;9.962;2024-03-07T15:05:22;8.30;1.00
4749;DHT22;2388;53.582;9.962;2024-03-07T15:07:48;8.30;99.90
4749;DHT22;2388;53.582;9.962;2024-03-07T15:10:19;8.30;1.00
4749;DHT22;2388;53.582;9.962;2024-03-07T15:12:47;8.20;99.90
4749;DHT22;2388;53.582;9.962;2024-03-07T15:15:16;8.10;60.20
4749;DHT22;2388;53.582;9.962;2024-03-07T15:17:44;8.10;99.90
4749;DHT22;2388;53.582;9.962;2024-03-07T15:20:11;8.10;1.00
4749;DHT22;2388;53.582;9.962;2024-03-07T15:22:53;8.10;1.00
4749;DHT22;2388;53.582;9.962;2024-03-07T15:25:22;8.10;99.90
4749;DHT22;2388;53.582;9.962;2024-03-07T15:27:49;8.10;1.00
4749;DHT22;2388;53.582;9.962;2024-03-07T15:30:19;8.10;99.90
4749;DHT22;2388;53.582;9.962;2024-03-07T15:32:46;8.10;99.90
4749;DHT22;2388;53.582;9.962;2024-03-07T15:35:12;8.10;1.00
4749;DHT22;2388;53.582;9.962;2024-03-07T15:37:44;8.20;1.00
4749;DHT22;2388;53.582;9.962;2024-03-07T15:40:10;8.20;1.00
4749;DHT22;2388;53.582;9.962;2024-03-07T15:42:44;8.10;99.90
4749;DHT22;2388;53.582;9.962;2024-03-07T15:45:18;8.10;99.90
4749;DHT22;2388;53.582;9.962;2024-03-07T15:47:54;8.10;99.90
4749;DHT22;2388;53.582;9.962;2024-03-07T15:50:21;8.10;99.90
4749;DHT22;2388;53.582;9.962;2024-03-07T15:52:49;8.00;99.90
4749;DHT22;2388;53.582;9.962;2024-03-07T15:55:18;8.00;1.00
4749;DHT22;2388;53.582;9.962;2024-03-07T15:57:45;8.10;99.90
4749;DHT22;2388;53.582;9.962;2024-03-07T16:00:13;8.10;1.00
4749;DHT22;2388;53.582;9.962;2024-03-07T16:03:05;8.00;1.00
4749;DHT22;2388;53.582;9.962;2024-03-07T16:05:36;7.90;99.90
4749;DHT22;2388;53.582;9.962;2024-03-07T16:08:06;7.90;99.90
4749;DHT22;2388;53.582;9.962;2024-03-07T16:10:35;7.80;99.90
4749;DHT22;2388;53.582;9.962;2024-03-07T16:13:03;7.80;99.90
4749;DHT22;2388;53.582;9.962;2024-03-07T16:15:29;7.80;99.90
4749;DHT22;2388;53.582;9.962;2024-03-07T16:17:57;7.80;99.90
4749;DHT22;2388;53.582;9.962;2024-03-07T16:20:23;7.70;99.90
4749;DHT22;2388;53.582;9.962;2024-03-07T16:22:49;7.70;99.90
4749;DHT22;2388;53.582;9.962;2024-03-07T16:25:16;7.70;99.90
4749;DHT22;2388;53.582;9.962;2024-03-07T16:27:43;7.70;99.90
4749;DHT22;2388;53.582;9.962;2024-03-07T16:30:09;7.70;99.90
4749;DHT22;2388;53.582;9.962;2024-03-07T16:32:37;7.70;99.90
4749;DHT22;2388;53.582;9.962;2024-03-07T16:35:03;7.60;1.00
4749;DHT22;2388;53.582;9.962;2024-03-07T16:37:37;7.60;1.00
4749;DHT22;2388;53.582;9.962;2024-03-07T16:40:14;7.60;99.90
4749;DHT22;2388;53.582;9.962;2024-03-07T16:42:46;7.60;1.00
4749;DHT22;2388;53.582;9.962;2024-03-07T16:45:20;7.60;99.90
4749;DHT22;2388;53.582;9.962;2024-03-07T16:47:48;7.50;99.90
4749;DHT22;2388;53.582;9.962;2024-03-07T16:50:17;7.50;99.90
4749;DHT22;2388;53.582;9.962;2024-03-07T16:52:43;7.50;99.90
4749;DHT22;2388;53.582;9.962;2024-03-07T16:55:18;7.40;99.90
4749;DHT22;2388;53.582;9.962;2024-03-07T16:57:45;7.30;99.90
4749;DHT22;2388;53.582;9.962;2024-03-07T17:00:19;7.30;99.90
4749;DHT22;2388;53.582;9.962;2024-03-07T17:03:04;7.20;99.90